Terminal Aerodrome Forecast
Issued by NWS

Home | Current Version | Previous Version | Text Only | Print | Product List | Glossary On
Versions: 1 2 3 4 5 6 7 8 9 10 11 12 13 14 15 16
452
FTUS44 KLIX 182339
TAFGPT
TAF
KGPT 182339Z 1900/1924 13004KT P6SM SCT140
     FM190200 13004KT 4SM BR BKN100
     FM190700 13004KT 2SM BR SCT003 BKN100
     FM190900 14005KT 1/2SM FG OVC002
     FM191300 14005KT 2SM BR OVC003
     FM191500 13011KT P6SM BKN025=

USA.gov is the U.S. government's official web portal to all federal, state and local government web resources and services.